Avalon, Mississippi
Current Conditions -  °F | °C
As of 3:53 PM on Tuesday 21 Oct 2014 (Local Time) from KGWO Reporting Station
Clear Clear  
Wind Chill: 78°   Ceiling: Unl
Heat Index: 79°   Visibility: 10mi
Dew Point: 53°   Wind: 3mph
Humidity: 42%   Direction: 320°NW
Pressure: 30.02"   Gusts: NA
Location:  33.65°N, 90.09°W
Report Text: KGWO 212053Z AUTO 32003KT 10SM CLR 26/12 A3002 RMK AO2 SLP164 T02560117 56015 TSNO
Loading
Personal Weather Stations






























Interactive Weather Map
Tropical Storm Tracking
New forecast layout! Learn more

10-Day Weather Forecast

Advertisements
Track Severe Weather on mobile